sensor_id;sensor_type;location;lat;lon;timestamp;P1;durP1;ratioP1;P2;durP2;ratioP2
19207;SDS011;9737;59.466;18.036;2023-04-25T00:00:22;18.35;;;8.20;;
19207;SDS011;9737;59.466;18.036;2023-04-25T00:02:51;13.82;;;7.68;;
19207;SDS011;9737;59.466;18.036;2023-04-25T00:05:21;14.10;;;8.00;;
19207;SDS011;9737;59.466;18.036;2023-04-25T00:07:49;15.57;;;7.80;;
19207;SDS011;9737;59.466;18.036;2023-04-25T00:10:17;13.90;;;7.70;;
19207;SDS011;9737;59.466;18.036;2023-04-25T00:12:45;15.80;;;7.40;;
19207;SDS011;9737;59.466;18.036;2023-04-25T00:15:14;13.35;;;7.35;;
19207;SDS011;9737;59.466;18.036;2023-04-25T00:17:42;13.45;;;7.20;;
19207;SDS011;9737;59.466;18.036;2023-04-25T00:20:12;11.45;;;6.70;;
19207;SDS011;9737;59.466;18.036;2023-04-25T00:22:41;9.98;;;6.47;;
19207;SDS011;9737;59.466;18.036;2023-04-25T00:25:09;9.23;;;6.40;;
19207;SDS011;9737;59.466;18.036;2023-04-25T00:27:36;14.50;;;6.57;;
19207;SDS011;9737;59.466;18.036;2023-04-25T00:30:05;12.38;;;6.72;;
19207;SDS011;9737;59.466;18.036;2023-04-25T00:32:34;9.95;;;6.68;;
19207;SDS011;9737;59.466;18.036;2023-04-25T00:35:02;15.13;;;6.93;;
19207;SDS011;9737;59.466;18.036;2023-04-25T00:37:30;14.15;;;6.60;;
19207;SDS011;9737;59.466;18.036;2023-04-25T00:40:00;12.48;;;7.35;;
19207;SDS011;9737;59.466;18.036;2023-04-25T00:42:28;11.73;;;7.25;;
19207;SDS011;9737;59.466;18.036;2023-04-25T00:44:58;15.70;;;7.47;;
19207;SDS011;9737;59.466;18.036;2023-04-25T00:47:26;12.13;;;6.65;;
19207;SDS011;9737;59.466;18.036;2023-04-25T00:49:56;12.43;;;7.13;;
19207;SDS011;9737;59.466;18.036;2023-04-25T00:52:23;13.43;;;7.55;;
19207;SDS011;9737;59.466;18.036;2023-04-25T00:54:51;15.77;;;6.72;;
19207;SDS011;9737;59.466;18.036;2023-04-25T00:57:21;14.70;;;7.70;;
19207;SDS011;9737;59.466;18.036;2023-04-25T00:59:48;12.73;;;7.32;;
19207;SDS011;9737;59.466;18.036;2023-04-25T01:02:19;9.35;;;6.80;;
19207;SDS011;9737;59.466;18.036;2023-04-25T01:04:48;9.88;;;6.30;;
19207;SDS011;9737;59.466;18.036;2023-04-25T01:07:16;11.25;;;6.30;;
19207;SDS011;9737;59.466;18.036;2023-04-25T01:09:45;11.93;;;6.60;;
19207;SDS011;9737;59.466;18.036;2023-04-25T01:12:13;13.68;;;6.50;;
19207;SDS011;9737;59.466;18.036;2023-04-25T01:14:43;12.90;;;6.50;;
19207;SDS011;9737;59.466;18.036;2023-04-25T01:17:11;11.48;;;6.32;;
19207;SDS011;9737;59.466;18.036;2023-04-25T01:19:41;9.02;;;6.13;;
19207;SDS011;9737;59.466;18.036;2023-04-25T01:22:10;8.45;;;6.07;;
19207;SDS011;9737;59.466;18.036;2023-04-25T01:24:38;11.45;;;6.35;;
19207;SDS011;9737;59.466;18.036;2023-04-25T01:27:06;12.20;;;6.32;;
19207;SDS011;9737;59.466;18.036;2023-04-25T01:29:35;12.15;;;6.88;;
19207;SDS011;9737;59.466;18.036;2023-04-25T01:32:03;13.70;;;7.32;;
19207;SDS011;9737;59.466;18.036;2023-04-25T01:34:33;22.73;;;7.70;;
19207;SDS011;9737;59.466;18.036;2023-04-25T01:37:01;12.75;;;7.40;;
19207;SDS011;9737;59.466;18.036;2023-04-25T01:39:30;13.65;;;7.88;;
19207;SDS011;9737;59.466;18.036;2023-04-25T01:41:58;11.65;;;7.43;;
19207;SDS011;9737;59.466;18.036;2023-04-25T01:44:26;14.90;;;7.45;;
19207;SDS011;9737;59.466;18.036;2023-04-25T01:46:54;12.75;;;7.70;;
19207;SDS011;9737;59.466;18.036;2023-04-25T01:49:22;11.57;;;6.95;;
19207;SDS011;9737;59.466;18.036;2023-04-25T01:51:50;11.95;;;7.30;;
19207;SDS011;9737;59.466;18.036;2023-04-25T01:54:18;11.07;;;7.05;;
19207;SDS011;9737;59.466;18.036;2023-04-25T01:56:51;10.43;;;6.72;;
19207;SDS011;9737;59.466;18.036;2023-04-25T01:59:18;13.63;;;6.95;;
19207;SDS011;9737;59.466;18.036;2023-04-25T02:01:48;13.55;;;7.25;;
19207;SDS011;9737;59.466;18.036;2023-04-25T02:04:16;9.15;;;6.25;;
19207;SDS011;9737;59.466;18.036;2023-04-25T02:06:44;9.32;;;5.97;;
19207;SDS011;9737;59.466;18.036;2023-04-25T02:09:12;9.02;;;6.00;;
19207;SDS011;9737;59.466;18.036;2023-04-25T02:11:39;12.02;;;6.45;;
19207;SDS011;9737;59.466;18.036;2023-04-25T02:14:09;9.65;;;6.15;;
19207;SDS011;9737;59.466;18.036;2023-04-25T02:16:37;9.82;;;6.18;;
19207;SDS011;9737;59.466;18.036;2023-04-25T02:19:05;10.27;;;6.15;;
19207;SDS011;9737;59.466;18.036;2023-04-25T02:21:33;10.05;;;6.15;;
19207;SDS011;9737;59.466;18.036;2023-04-25T02:24:02;13.23;;;5.63;;
19207;SDS011;9737;59.466;18.036;2023-04-25T02:26:30;9.48;;;6.13;;
19207;SDS011;9737;59.466;18.036;2023-04-25T02:28:58;11.05;;;5.75;;
19207;SDS011;9737;59.466;18.036;2023-04-25T02:31:30;6.68;;;4.57;;
19207;SDS011;9737;59.466;18.036;2023-04-25T02:34:01;7.38;;;5.28;;
19207;SDS011;9737;59.466;18.036;2023-04-25T02:36:29;7.00;;;5.00;;
19207;SDS011;9737;59.466;18.036;2023-04-25T02:39:00;7.28;;;4.95;;
19207;SDS011;9737;59.466;18.036;2023-04-25T02:41:29;7.10;;;4.72;;
19207;SDS011;9737;59.466;18.036;2023-04-25T02:43:57;6.97;;;4.63;;
19207;SDS011;9737;59.466;18.036;2023-04-25T02:46:25;9.40;;;4.50;;
19207;SDS011;9737;59.466;18.036;2023-04-25T02:49:05;5.82;;;4.32;;
19207;SDS011;9737;59.466;18.036;2023-04-25T02:51:33;7.53;;;4.38;;
19207;SDS011;9737;59.466;18.036;2023-04-25T02:54:01;6.45;;;4.15;;
19207;SDS011;9737;59.466;18.036;2023-04-25T02:56:29;5.25;;;3.80;;
19207;SDS011;9737;59.466;18.036;2023-04-25T02:58:57;6.38;;;3.70;;
19207;SDS011;9737;59.466;18.036;2023-04-25T03:01:25;5.32;;;3.90;;
19207;SDS011;9737;59.466;18.036;2023-04-25T03:03:53;4.43;;;3.45;;
19207;SDS011;9737;59.466;18.036;2023-04-25T03:06:23;5.13;;;3.60;;
19207;SDS011;9737;59.466;18.036;2023-04-25T03:08:51;5.50;;;3.47;;
19207;SDS011;9737;59.466;18.036;2023-04-25T03:11:19;4.90;;;3.60;;
19207;SDS011;9737;59.466;18.036;2023-04-25T03:13:47;4.63;;;3.28;;
19207;SDS011;9737;59.466;18.036;2023-04-25T03:16:16;6.18;;;3.40;;
19207;SDS011;9737;59.466;18.036;2023-04-25T03:18:44;4.38;;;3.40;;
19207;SDS011;9737;59.466;18.036;2023-04-25T03:21:12;4.15;;;3.10;;
19207;SDS011;9737;59.466;18.036;2023-04-25T03:23:42;3.35;;;3.05;;
19207;SDS011;9737;59.466;18.036;2023-04-25T03:26:10;3.90;;;3.10;;
19207;SDS011;9737;59.466;18.036;2023-04-25T03:28:38;3.30;;;2.88;;
19207;SDS011;9737;59.466;18.036;2023-04-25T03:31:06;3.92;;;3.08;;
19207;SDS011;9737;59.466;18.036;2023-04-25T03:33:34;3.00;;;2.70;;
19207;SDS011;9737;59.466;18.036;2023-04-25T03:36:02;2.80;;;2.58;;
19207;SDS011;9737;59.466;18.036;2023-04-25T03:38:30;5.03;;;2.80;;
19207;SDS011;9737;59.466;18.036;2023-04-25T03:40:59;3.47;;;2.67;;
19207;SDS011;9737;59.466;18.036;2023-04-25T03:43:28;3.03;;;2.72;;
19207;SDS011;9737;59.466;18.036;2023-04-25T03:45:56;3.20;;;2.50;;
19207;SDS011;9737;59.466;18.036;2023-04-25T03:48:25;3.00;;;2.40;;
19207;SDS011;9737;59.466;18.036;2023-04-25T03:50:53;3.28;;;2.60;;
19207;SDS011;9737;59.466;18.036;2023-04-25T03:53:21;2.70;;;2.50;;
19207;SDS011;9737;59.466;18.036;2023-04-25T03:55:50;2.88;;;2.60;;
19207;SDS011;9737;59.466;18.036;2023-04-25T03:58:19;5.00;;;2.63;;
19207;SDS011;9737;59.466;18.036;2023-04-25T04:00:46;2.30;;;2.10;;
19207;SDS011;9737;59.466;18.036;2023-04-25T04:03:14;2.50;;;2.30;;
19207;SDS011;9737;59.466;18.036;2023-04-25T04:05:43;2.50;;;2.30;;
19207;SDS011;9737;59.466;18.036;2023-04-25T04:08:11;2.47;;;2.22;;
19207;SDS011;9737;59.466;18.036;2023-04-25T04:10:39;3.10;;;2.63;;
19207;SDS011;9737;59.466;18.036;2023-04-25T04:13:07;3.45;;;2.10;;
19207;SDS011;9737;59.466;18.036;2023-04-25T04:15:36;2.63;;;2.42;;
19207;SDS011;9737;59.466;18.036;2023-04-25T04:18:04;4.63;;;2.50;;
19207;SDS011;9737;59.466;18.036;2023-04-25T04:20:32;3.42;;;2.42;;
19207;SDS011;9737;59.466;18.036;2023-04-25T04:23:00;2.80;;;2.50;;
19207;SDS011;9737;59.466;18.036;2023-04-25T04:25:29;2.50;;;2.30;;
19207;SDS011;9737;59.466;18.036;2023-04-25T04:27:57;2.80;;;2.35;;
19207;SDS011;9737;59.466;18.036;2023-04-25T04:30:25;2.55;;;2.35;;
19207;SDS011;9737;59.466;18.036;2023-04-25T04:32:57;3.28;;;2.60;;
19207;SDS011;9737;59.466;18.036;2023-04-25T04:35:25;3.47;;;2.70;;
19207;SDS011;9737;59.466;18.036;2023-04-25T04:37:53;3.33;;;2.70;;
19207;SDS011;9737;59.466;18.036;2023-04-25T04:40:22;3.75;;;2.70;;
19207;SDS011;9737;59.466;18.036;2023-04-25T04:42:49;3.50;;;2.70;;
19207;SDS011;9737;59.466;18.036;2023-04-25T04:45:17;3.47;;;2.88;;
19207;SDS011;9737;59.466;18.036;2023-04-25T04:47:45;3.85;;;2.95;;
19207;SDS011;9737;59.466;18.036;2023-04-25T04:50:16;3.63;;;2.65;;
19207;SDS011;9737;59.466;18.036;2023-04-25T04:52:44;5.22;;;2.95;;
19207;SDS011;9737;59.466;18.036;2023-04-25T04:55:12;6.00;;;3.10;;
19207;SDS011;9737;59.466;18.036;2023-04-25T04:57:40;3.95;;;3.05;;
19207;SDS011;9737;59.466;18.036;2023-04-25T05:00:09;4.80;;;3.35;;
19207;SDS011;9737;59.466;18.036;2023-04-25T05:02:38;6.60;;;3.45;;
19207;SDS011;9737;59.466;18.036;2023-04-25T05:05:07;4.82;;;3.33;;
19207;SDS011;9737;59.466;18.036;2023-04-25T05:07:36;5.15;;;3.40;;
19207;SDS011;9737;59.466;18.036;2023-04-25T05:10:05;5.63;;;3.80;;
19207;SDS011;9737;59.466;18.036;2023-04-25T05:12:33;4.00;;;3.13;;
19207;SDS011;9737;59.466;18.036;2023-04-25T05:15:02;6.63;;;3.45;;
19207;SDS011;9737;59.466;18.036;2023-04-25T05:17:30;4.82;;;3.58;;
19207;SDS011;9737;59.466;18.036;2023-04-25T05:19:59;5.65;;;3.53;;
19207;SDS011;9737;59.466;18.036;2023-04-25T05:22:26;4.85;;;3.53;;
19207;SDS011;9737;59.466;18.036;2023-04-25T05:24:56;5.90;;;3.80;;
19207;SDS011;9737;59.466;18.036;2023-04-25T05:27:24;5.90;;;3.67;;
19207;SDS011;9737;59.466;18.036;2023-04-25T05:29:52;5.90;;;3.70;;
19207;SDS011;9737;59.466;18.036;2023-04-25T05:32:19;5.95;;;4.15;;
19207;SDS011;9737;59.466;18.036;2023-04-25T05:34:48;5.95;;;3.80;;
19207;SDS011;9737;59.466;18.036;2023-04-25T05:37:16;8.45;;;4.20;;
19207;SDS011;9737;59.466;18.036;2023-04-25T05:39:44;7.72;;;3.80;;
19207;SDS011;9737;59.466;18.036;2023-04-25T05:42:13;6.60;;;4.07;;
19207;SDS011;9737;59.466;18.036;2023-04-25T05:44:41;6.85;;;3.70;;
19207;SDS011;9737;59.466;18.036;2023-04-25T05:47:09;8.00;;;4.10;;
19207;SDS011;9737;59.466;18.036;2023-04-25T05:49:37;7.95;;;4.10;;
19207;SDS011;9737;59.466;18.036;2023-04-25T05:52:07;5.88;;;3.88;;
19207;SDS011;9737;59.466;18.036;2023-04-25T05:54:35;6.80;;;4.45;;
19207;SDS011;9737;59.466;18.036;2023-04-25T05:57:03;9.82;;;4.50;;
19207;SDS011;9737;59.466;18.036;2023-04-25T05:59:32;7.18;;;4.55;;
19207;SDS011;9737;59.466;18.036;2023-04-25T06:02:01;8.25;;;4.00;;
19207;SDS011;9737;59.466;18.036;2023-04-25T06:06:04;6.97;;;4.30;;
19207;SDS011;9737;59.466;18.036;2023-04-25T06:08:32;5.82;;;3.92;;
19207;SDS011;9737;59.466;18.036;2023-04-25T06:11:00;7.88;;;4.20;;
19207;SDS011;9737;59.466;18.036;2023-04-25T06:13:28;8.63;;;4.10;;
19207;SDS011;9737;59.466;18.036;2023-04-25T06:15:56;8.05;;;4.13;;
19207;SDS011;9737;59.466;18.036;2023-04-25T06:18:24;6.47;;;3.90;;
19207;SDS011;9737;59.466;18.036;2023-04-25T06:20:51;7.78;;;4.03;;
19207;SDS011;9737;59.466;18.036;2023-04-25T06:23:21;6.45;;;4.15;;
19207;SDS011;9737;59.466;18.036;2023-04-25T06:25:49;9.40;;;4.38;;
19207;SDS011;9737;59.466;18.036;2023-04-25T06:28:17;9.38;;;4.10;;
19207;SDS011;9737;59.466;18.036;2023-04-25T06:30:45;7.07;;;3.70;;
19207;SDS011;9737;59.466;18.036;2023-04-25T06:33:13;7.82;;;4.20;;
19207;SDS011;9737;59.466;18.036;2023-04-25T06:35:41;6.50;;;3.67;;
19207;SDS011;9737;59.466;18.036;2023-04-25T06:38:09;5.03;;;3.45;;
19207;SDS011;9737;59.466;18.036;2023-04-25T06:40:38;8.55;;;4.05;;
19207;SDS011;9737;59.466;18.036;2023-04-25T06:43:06;5.95;;;3.03;;
19207;SDS011;9737;59.466;18.036;2023-04-25T06:45:34;7.55;;;3.40;;
19207;SDS011;9737;59.466;18.036;2023-04-25T06:48:02;4.97;;;3.70;;
19207;SDS011;9737;59.466;18.036;2023-04-25T06:50:30;6.03;;;3.78;;
19207;SDS011;9737;59.466;18.036;2023-04-25T06:52:58;6.30;;;3.90;;
19207;SDS011;9737;59.466;18.036;2023-04-25T06:55:27;6.10;;;3.60;;
19207;SDS011;9737;59.466;18.036;2023-04-25T06:57:57;5.20;;;3.65;;
19207;SDS011;9737;59.466;18.036;2023-04-25T07:00:24;6.70;;;3.72;;
19207;SDS011;9737;59.466;18.036;2023-04-25T07:02:52;5.38;;;3.80;;
19207;SDS011;9737;59.466;18.036;2023-04-25T07:05:21;7.28;;;3.58;;
19207;SDS011;9737;59.466;18.036;2023-04-25T07:07:48;5.53;;;3.60;;
19207;SDS011;9737;59.466;18.036;2023-04-25T07:10:16;6.03;;;3.58;;
19207;SDS011;9737;59.466;18.036;2023-04-25T07:12:44;5.72;;;3.45;;
19207;SDS011;9737;59.466;18.036;2023-04-25T07:15:13;5.00;;;3.38;;
19207;SDS011;9737;59.466;18.036;2023-04-25T07:17:41;4.20;;;3.00;;
19207;SDS011;9737;59.466;18.036;2023-04-25T07:20:09;8.45;;;3.30;;
19207;SDS011;9737;59.466;18.036;2023-04-25T07:22:38;4.55;;;2.90;;
19207;SDS011;9737;59.466;18.036;2023-04-25T07:25:06;5.53;;;3.30;;
19207;SDS011;9737;59.466;18.036;2023-04-25T07:27:35;6.50;;;3.63;;
19207;SDS011;9737;59.466;18.036;2023-04-25T07:30:03;4.47;;;3.28;;
19207;SDS011;9737;59.466;18.036;2023-04-25T07:32:34;5.65;;;3.55;;
19207;SDS011;9737;59.466;18.036;2023-04-25T07:35:04;5.32;;;3.60;;
19207;SDS011;9737;59.466;18.036;2023-04-25T07:37:33;5.38;;;3.42;;
19207;SDS011;9737;59.466;18.036;2023-04-25T07:40:01;6.25;;;2.92;;
19207;SDS011;9737;59.466;18.036;2023-04-25T07:42:30;4.68;;;3.20;;
19207;SDS011;9737;59.466;18.036;2023-04-25T07:44:58;6.43;;;3.35;;
19207;SDS011;9737;59.466;18.036;2023-04-25T07:47:25;4.72;;;3.35;;
19207;SDS011;9737;59.466;18.036;2023-04-25T07:49:55;6.20;;;3.38;;
19207;SDS011;9737;59.466;18.036;2023-04-25T07:52:24;5.30;;;3.33;;
19207;SDS011;9737;59.466;18.036;2023-04-25T07:54:51;6.07;;;3.20;;
19207;SDS011;9737;59.466;18.036;2023-04-25T07:57:19;5.72;;;3.63;;
19207;SDS011;9737;59.466;18.036;2023-04-25T07:59:47;7.40;;;3.53;;
19207;SDS011;9737;59.466;18.036;2023-04-25T08:02:15;4.72;;;3.15;;
19207;SDS011;9737;59.466;18.036;2023-04-25T08:04:43;4.80;;;3.63;;
19207;SDS011;9737;59.466;18.036;2023-04-25T08:07:13;4.80;;;3.33;;
19207;SDS011;9737;59.466;18.036;2023-04-25T08:09:41;5.10;;;3.17;;
19207;SDS011;9737;59.466;18.036;2023-04-25T08:12:09;5.43;;;3.90;;
19207;SDS011;9737;59.466;18.036;2023-04-25T08:14:37;4.80;;;3.50;;
19207;SDS011;9737;59.466;18.036;2023-04-25T08:17:06;4.38;;;3.50;;
19207;SDS011;9737;59.466;18.036;2023-04-25T08:19:33;4.95;;;3.72;;
19207;SDS011;9737;59.466;18.036;2023-04-25T08:22:01;6.82;;;3.58;;
19207;SDS011;9737;59.466;18.036;2023-04-25T08:24:30;5.18;;;3.58;;
19207;SDS011;9737;59.466;18.036;2023-04-25T08:26:58;4.20;;;3.50;;
19207;SDS011;9737;59.466;18.036;2023-04-25T08:29:26;5.03;;;3.60;;
19207;SDS011;9737;59.466;18.036;2023-04-25T08:31:54;5.22;;;3.50;;
19207;SDS011;9737;59.466;18.036;2023-04-25T08:34:23;8.05;;;5.28;;
19207;SDS011;9737;59.466;18.036;2023-04-25T08:36:52;5.75;;;3.97;;
19207;SDS011;9737;59.466;18.036;2023-04-25T08:39:20;5.53;;;3.60;;
19207;SDS011;9737;59.466;18.036;2023-04-25T08:41:49;5.28;;;3.28;;
19207;SDS011;9737;59.466;18.036;2023-04-25T08:44:19;4.97;;;3.47;;
19207;SDS011;9737;59.466;18.036;2023-04-25T08:46:47;5.07;;;3.63;;
19207;SDS011;9737;59.466;18.036;2023-04-25T08:49:17;4.90;;;3.45;;
19207;SDS011;9737;59.466;18.036;2023-04-25T08:51:46;5.82;;;3.60;;
19207;SDS011;9737;59.466;18.036;2023-04-25T08:54:16;8.35;;;3.38;;
19207;SDS011;9737;59.466;18.036;2023-04-25T08:57:03;7.10;;;3.70;;
19207;SDS011;9737;59.466;18.036;2023-04-25T08:59:31;5.68;;;3.70;;
19207;SDS011;9737;59.466;18.036;2023-04-25T09:02:02;5.32;;;3.60;;
19207;SDS011;9737;59.466;18.036;2023-04-25T09:04:30;5.55;;;3.70;;
19207;SDS011;9737;59.466;18.036;2023-04-25T09:06:58;4.93;;;3.47;;
19207;SDS011;9737;59.466;18.036;2023-04-25T09:09:26;6.75;;;3.72;;
19207;SDS011;9737;59.466;18.036;2023-04-25T09:11:54;6.53;;;3.80;;
19207;SDS011;9737;59.466;18.036;2023-04-25T09:14:24;6.85;;;4.10;;
19207;SDS011;9737;59.466;18.036;2023-04-25T09:16:58;5.05;;;3.75;;
19207;SDS011;9737;59.466;18.036;2023-04-25T09:19:28;5.78;;;3.88;;
19207;SDS011;9737;59.466;18.036;2023-04-25T09:22:08;6.20;;;4.03;;
19207;SDS011;9737;59.466;18.036;2023-04-25T09:24:36;7.97;;;3.80;;
19207;SDS011;9737;59.466;18.036;2023-04-25T09:27:06;6.13;;;4.43;;
19207;SDS011;9737;59.466;18.036;2023-04-25T09:29:37;5.95;;;4.07;;
19207;SDS011;9737;59.466;18.036;2023-04-25T09:32:10;7.88;;;4.38;;
19207;SDS011;9737;59.466;18.036;2023-04-25T09:34:40;4.95;;;3.90;;
19207;SDS011;9737;59.466;18.036;2023-04-25T09:37:08;5.82;;;4.13;;
19207;SDS011;9737;59.466;18.036;2023-04-25T09:39:37;5.85;;;4.07;;
19207;SDS011;9737;59.466;18.036;2023-04-25T09:42:07;6.50;;;4.28;;
19207;SDS011;9737;59.466;18.036;2023-04-25T09:44:38;6.13;;;4.35;;
19207;SDS011;9737;59.466;18.036;2023-04-25T10:07:10;7.72;;;5.50;;
19207;SDS011;9737;59.466;18.036;2023-04-25T10:09:39;8.48;;;5.85;;
19207;SDS011;9737;59.466;18.036;2023-04-25T10:12:08;8.68;;;5.72;;
19207;SDS011;9737;59.466;18.036;2023-04-25T10:14:37;8.65;;;5.72;;
19207;SDS011;9737;59.466;18.036;2023-04-25T10:17:06;9.90;;;6.00;;
19207;SDS011;9737;59.466;18.036;2023-04-25T10:19:37;8.65;;;6.20;;
19207;SDS011;9737;59.466;18.036;2023-04-25T10:22:08;12.00;;;6.13;;
19207;SDS011;9737;59.466;18.036;2023-04-25T10:24:42;8.27;;;6.13;;
19207;SDS011;9737;59.466;18.036;2023-04-25T10:27:12;11.52;;;6.30;;
19207;SDS011;9737;59.466;18.036;2023-04-25T10:29:41;11.40;;;5.95;;
19207;SDS011;9737;59.466;18.036;2023-04-25T10:32:10;8.63;;;5.97;;
19207;SDS011;9737;59.466;18.036;2023-04-25T10:34:39;6.82;;;5.30;;
19207;SDS011;9737;59.466;18.036;2023-04-25T10:37:09;11.20;;;6.75;;
19207;SDS011;9737;59.466;18.036;2023-04-25T10:39:39;10.05;;;5.85;;
19207;SDS011;9737;59.466;18.036;2023-04-25T10:42:08;9.43;;;5.72;;
19207;SDS011;9737;59.466;18.036;2023-04-25T10:44:37;8.68;;;5.97;;
19207;SDS011;9737;59.466;18.036;2023-04-25T10:47:06;10.52;;;6.00;;
19207;SDS011;9737;59.466;18.036;2023-04-25T10:49:36;9.52;;;6.18;;
19207;SDS011;9737;59.466;18.036;2023-04-25T10:52:18;7.97;;;5.75;;
19207;SDS011;9737;59.466;18.036;2023-04-25T10:54:56;9.20;;;5.63;;
19207;SDS011;9737;59.466;18.036;2023-04-25T10:57:28;9.95;;;6.50;;
19207;SDS011;9737;59.466;18.036;2023-04-25T10:59:58;9.48;;;6.10;;
19207;SDS011;9737;59.466;18.036;2023-04-25T11:02:27;12.18;;;6.53;;
19207;SDS011;9737;59.466;18.036;2023-04-25T11:04:56;9.50;;;6.45;;
19207;SDS011;9737;59.466;18.036;2023-04-25T11:07:26;9.68;;;6.35;;
19207;SDS011;9737;59.466;18.036;2023-04-25T11:10:03;9.38;;;6.85;;
19207;SDS011;9737;59.466;18.036;2023-04-25T11:12:32;9.60;;;6.13;;
19207;SDS011;9737;59.466;18.036;2023-04-25T11:15:01;11.23;;;7.38;;
19207;SDS011;9737;59.466;18.036;2023-04-25T11:17:30;9.85;;;6.88;;
19207;SDS011;9737;59.466;18.036;2023-04-25T11:20:00;9.77;;;5.97;;
19207;SDS011;9737;59.466;18.036;2023-04-25T11:22:28;10.50;;;6.50;;
19207;SDS011;9737;59.466;18.036;2023-04-25T11:24:56;10.05;;;6.13;;
19207;SDS011;9737;59.466;18.036;2023-04-25T11:27:26;10.52;;;6.47;;
19207;SDS011;9737;59.466;18.036;2023-04-25T11:29:54;13.07;;;6.35;;
19207;SDS011;9737;59.466;18.036;2023-04-25T11:32:22;9.32;;;6.07;;
19207;SDS011;9737;59.466;18.036;2023-04-25T11:34:53;8.80;;;6.25;;
19207;SDS011;9737;59.466;18.036;2023-04-25T11:37:21;12.63;;;6.80;;
19207;SDS011;9737;59.466;18.036;2023-04-25T11:39:49;9.20;;;6.20;;
19207;SDS011;9737;59.466;18.036;2023-04-25T11:42:17;9.07;;;6.78;;
19207;SDS011;9737;59.466;18.036;2023-04-25T11:44:47;11.85;;;6.95;;
19207;SDS011;9737;59.466;18.036;2023-04-25T11:47:15;11.75;;;6.97;;
19207;SDS011;9737;59.466;18.036;2023-04-25T11:49:43;11.48;;;6.78;;
19207;SDS011;9737;59.466;18.036;2023-04-25T11:52:11;13.15;;;7.03;;
19207;SDS011;9737;59.466;18.036;2023-04-25T11:54:39;14.43;;;7.57;;
19207;SDS011;9737;59.466;18.036;2023-04-25T11:57:08;12.55;;;7.40;;
19207;SDS011;9737;59.466;18.036;2023-04-25T11:59:36;11.68;;;7.65;;
19207;SDS011;9737;59.466;18.036;2023-04-25T12:02:05;12.50;;;7.93;;
19207;SDS011;9737;59.466;18.036;2023-04-25T12:04:33;12.15;;;7.68;;
19207;SDS011;9737;59.466;18.036;2023-04-25T12:07:02;13.05;;;7.43;;
19207;SDS011;9737;59.466;18.036;2023-04-25T12:09:30;11.63;;;7.28;;
19207;SDS011;9737;59.466;18.036;2023-04-25T12:12:00;12.68;;;8.18;;
19207;SDS011;9737;59.466;18.036;2023-04-25T12:14:31;25.45;;;7.55;;
19207;SDS011;9737;59.466;18.036;2023-04-25T12:17:03;12.98;;;7.40;;
19207;SDS011;9737;59.466;18.036;2023-04-25T12:19:36;11.60;;;7.47;;
19207;SDS011;9737;59.466;18.036;2023-04-25T12:22:18;10.50;;;7.55;;
19207;SDS011;9737;59.466;18.036;2023-04-25T12:24:50;14.45;;;8.13;;
19207;SDS011;9737;59.466;18.036;2023-04-25T12:27:20;15.00;;;7.82;;
19207;SDS011;9737;59.466;18.036;2023-04-25T12:29:51;13.57;;;7.60;;
19207;SDS011;9737;59.466;18.036;2023-04-25T12:32:21;11.95;;;7.45;;
19207;SDS011;9737;59.466;18.036;2023-04-25T12:34:50;16.70;;;8.05;;
19207;SDS011;9737;59.466;18.036;2023-04-25T12:37:18;14.50;;;8.25;;
19207;SDS011;9737;59.466;18.036;2023-04-25T12:39:51;12.98;;;8.10;;
19207;SDS011;9737;59.466;18.036;2023-04-25T12:42:19;11.73;;;7.47;;
19207;SDS011;9737;59.466;18.036;2023-04-25T12:44:47;14.57;;;8.48;;
19207;SDS011;9737;59.466;18.036;2023-04-25T12:47:15;13.13;;;7.60;;
19207;SDS011;9737;59.466;18.036;2023-04-25T12:49:43;15.05;;;8.15;;
19207;SDS011;9737;59.466;18.036;2023-04-25T12:52:12;17.63;;;7.90;;
19207;SDS011;9737;59.466;18.036;2023-04-25T12:54:40;12.15;;;7.82;;
19207;SDS011;9737;59.466;18.036;2023-04-25T12:57:08;12.25;;;7.82;;
19207;SDS011;9737;59.466;18.036;2023-04-25T12:59:37;11.57;;;7.47;;
19207;SDS011;9737;59.466;18.036;2023-04-25T13:02:05;12.27;;;8.27;;
19207;SDS011;9737;59.466;18.036;2023-04-25T13:04:33;14.73;;;8.50;;
19207;SDS011;9737;59.466;18.036;2023-04-25T13:07:01;16.45;;;7.88;;
19207;SDS011;9737;59.466;18.036;2023-04-25T13:09:31;11.68;;;8.18;;
19207;SDS011;9737;59.466;18.036;2023-04-25T13:11:59;21.73;;;9.27;;
19207;SDS011;9737;59.466;18.036;2023-04-25T13:14:26;14.77;;;8.00;;
19207;SDS011;9737;59.466;18.036;2023-04-25T13:16:54;16.02;;;8.18;;
19207;SDS011;9737;59.466;18.036;2023-04-25T13:19:22;11.75;;;8.00;;
19207;SDS011;9737;59.466;18.036;2023-04-25T13:21:51;13.50;;;7.90;;
19207;SDS011;9737;59.466;18.036;2023-04-25T13:24:19;23.92;;;8.93;;
19207;SDS011;9737;59.466;18.036;2023-04-25T13:26:48;21.90;;;8.02;;
19207;SDS011;9737;59.466;18.036;2023-04-25T13:29:16;15.02;;;8.65;;
19207;SDS011;9737;59.466;18.036;2023-04-25T13:31:44;17.85;;;8.45;;
19207;SDS011;9737;59.466;18.036;2023-04-25T13:34:13;14.25;;;7.70;;
19207;SDS011;9737;59.466;18.036;2023-04-25T13:36:41;16.80;;;9.20;;
19207;SDS011;9737;59.466;18.036;2023-04-25T13:39:09;12.68;;;8.02;;
19207;SDS011;9737;59.466;18.036;2023-04-25T13:41:38;12.10;;;7.82;;
19207;SDS011;9737;59.466;18.036;2023-04-25T13:44:08;12.25;;;7.63;;
19207;SDS011;9737;59.466;18.036;2023-04-25T13:46:36;12.60;;;7.72;;
19207;SDS011;9737;59.466;18.036;2023-04-25T13:49:07;16.98;;;8.20;;
19207;SDS011;9737;59.466;18.036;2023-04-25T13:51:39;14.95;;;8.55;;
19207;SDS011;9737;59.466;18.036;2023-04-25T13:54:07;14.23;;;7.85;;
19207;SDS011;9737;59.466;18.036;2023-04-25T13:56:35;15.30;;;7.82;;
19207;SDS011;9737;59.466;18.036;2023-04-25T13:59:03;15.30;;;8.15;;
19207;SDS011;9737;59.466;18.036;2023-04-25T14:01:32;14.27;;;8.38;;
19207;SDS011;9737;59.466;18.036;2023-04-25T14:04:02;15.93;;;9.43;;
19207;SDS011;9737;59.466;18.036;2023-04-25T14:06:32;16.15;;;9.15;;
19207;SDS011;9737;59.466;18.036;2023-04-25T14:09:00;15.95;;;9.25;;
19207;SDS011;9737;59.466;18.036;2023-04-25T14:11:30;17.35;;;9.32;;
19207;SDS011;9737;59.466;18.036;2023-04-25T14:13:58;13.15;;;8.75;;
19207;SDS011;9737;59.466;18.036;2023-04-25T14:19:15;13.05;;;8.18;;
19207;SDS011;9737;59.466;18.036;2023-04-25T14:21:47;14.40;;;9.70;;
19207;SDS011;9737;59.466;18.036;2023-04-25T14:24:15;17.50;;;9.00;;
19207;SDS011;9737;59.466;18.036;2023-04-25T14:26:43;17.30;;;8.80;;
19207;SDS011;9737;59.466;18.036;2023-04-25T14:29:11;12.05;;;8.23;;
19207;SDS011;9737;59.466;18.036;2023-04-25T14:31:41;15.23;;;8.63;;
19207;SDS011;9737;59.466;18.036;2023-04-25T14:34:09;20.20;;;8.23;;
19207;SDS011;9737;59.466;18.036;2023-04-25T14:36:37;18.80;;;7.78;;
19207;SDS011;9737;59.466;18.036;2023-04-25T14:39:06;18.88;;;9.70;;
19207;SDS011;9737;59.466;18.036;2023-04-25T14:41:35;21.00;;;10.02;;
19207;SDS011;9737;59.466;18.036;2023-04-25T14:44:03;13.27;;;9.85;;
19207;SDS011;9737;59.466;18.036;2023-04-25T14:46:32;20.77;;;11.07;;
19207;SDS011;9737;59.466;18.036;2023-04-25T14:49:01;20.30;;;11.18;;
19207;SDS011;9737;59.466;18.036;2023-04-25T14:51:30;26.95;;;12.23;;
19207;SDS011;9737;59.466;18.036;2023-04-25T14:53:58;19.83;;;11.88;;
19207;SDS011;9737;59.466;18.036;2023-04-25T14:56:26;23.42;;;11.48;;
19207;SDS011;9737;59.466;18.036;2023-04-25T14:58:53;23.92;;;11.63;;
19207;SDS011;9737;59.466;18.036;2023-04-25T15:01:21;20.77;;;11.63;;
19207;SDS011;9737;59.466;18.036;2023-04-25T15:03:50;21.85;;;11.57;;
19207;SDS011;9737;59.466;18.036;2023-04-25T15:06:20;22.85;;;11.65;;
19207;SDS011;9737;59.466;18.036;2023-04-25T15:08:48;25.95;;;12.40;;
19207;SDS011;9737;59.466;18.036;2023-04-25T15:11:16;20.70;;;12.48;;
19207;SDS011;9737;59.466;18.036;2023-04-25T15:13:45;21.85;;;12.00;;